San Juan, PR

1:00 PM AST on October 21, 2014 (GMT -0400)
Condado, Calle Earle, At The Ocean | Change Station
CLOSE
Current Station
Personal Weather Station
Location: San Juan, SAN JUAN
Elevation: 10 ft
Nearby Weather Stations

Elev 10 ft 18.46 °N, 66.07 °W | Updated 10 seconds ago

Scattered Clouds
Scattered Clouds
87.0 °F
Feels Like 97 °F
N
6.0
Wind Variable Wind from NNW
Gusts 13.0 mph

Today
High -- | Low -- °F
--% Chance of Precip.
Yesterday
High -- | Low -- °F
Precip. -- in
6:20 AM 5:57 PM
Waning Crescent, 5% visible
Pressure 29.92 in
Visibility 10.0 miles
Clouds Scattered Clouds 3600 ft
Heat Index 97 °F
Dew Point 75 °F
Humidity 68%
Rainfall 0.00 in
Snow Depth Not available.
UV 7 out of 12
Pollen Not available.
Air Quality Not available.
Flu Activity Local Activity
METAR TJSJ 211656Z 04016G20KT 10SM SCT036 31/24 A2992 RMK AO2 SLP131 SHRA DSNT S T03110239

More Conditions Fewer Conditions

Pressure 29.92 in
Visibility 10.0 miles
Clouds Scattered Clouds 3600 ft
Heat Index 97 °F
Dew Point 75 °F
Humidity 68%
Rainfall 0.00 in
Snow Depth Not available.
UV 7 out of 12
Pollen Not available.
Air Quality Not available.
Flu Activity Local Activity
METAR TJSJ 211656Z 04016G20KT 10SM SCT036 31/24 A2992 RMK AO2 SLP131 SHRA DSNT S T03110239

More Conditions Fewer Conditions

10-Day Weather Forecast

Almanac

Astronomy

Oct. 21, 2014 Rise Set
Actual Time 6:20 AM AST 5:57 PM AST
Civil Twilight 5:57 AM AST 6:19 PM AST
Nautical Twilight 5:32 AM AST 6:45 PM AST
Astronomical Twilight 5:06 AM AST 7:10 PM AST
Moon 4:19 AM AST 4:34 PM AST
Length of Visible Light 12h 22m
Length of Day
11h 37m
Tomorrow will be 0m 57s shorter.
Waning Crescent, 5% of the Moon is Illuminated
Today
Waning Crescent
Oct 23
New
Oct 30
First Quarter
Nov 6
Full
Nov 14
Last Quarter

Community

WunderPhotos

Upload Photos

1,763,713 photos uploaded!

Nearby

Snow Depth

Station Depth Elevation
No new snow has been reported.

Earthquake Activity

City Distance Mag. Time & Date
No recent earthquake activity has been reported nearby.
Minimum magnitude displayed is 2.5.

Coastal Water Temperatures

Place Temperature
San Juan, PR 87.1 °F
Mayaguez, PR 84.9 °F
Esperanza, PR 84.0 °F

Nearby Weather Stations